createdAt,value
2022-11-20T00:02:23.765Z,100893.41
2022-11-20T00:04:50.255Z,100903.25
2022-11-20T00:07:16.671Z,100896.78
2022-11-20T00:09:43.137Z,100894.06
2022-11-20T00:12:09.962Z,100893.22
2022-11-20T00:14:36.349Z,100891.53
2022-11-20T00:17:02.788Z,100894.25
2022-11-20T00:19:29.237Z,100898.66
2022-11-20T00:21:56.415Z,100896.13
2022-11-20T00:24:22.849Z,100898.66
2022-11-20T00:26:49.355Z,100895.94
2022-11-20T00:29:15.817Z,100895.09
2022-11-20T00:31:42.238Z,100892.38
2022-11-20T00:34:08.705Z,100895.09
2022-11-20T00:36:35.429Z,100891.53
2022-11-20T00:39:02.101Z,100897.81
2022-11-20T00:41:29.394Z,100903.25
2022-11-20T00:43:56.207Z,100893.41
2022-11-20T00:46:23.455Z,100900.53
2022-11-20T00:48:49.945Z,100895.09
2022-11-20T00:51:20.486Z,100893.41
2022-11-20T00:53:47.204Z,100895.28
2022-11-20T00:56:15.062Z,100893.41
2022-11-20T00:58:42.378Z,100896.31
2022-11-20T01:01:08.840Z,100904.28
2022-11-20T01:03:37.087Z,100908.69
2022-11-20T01:06:04.348Z,100911.41
2022-11-20T01:08:32.533Z,100899.69
2022-11-20T01:11:03.150Z,100898.00
2022-11-20T01:13:39.276Z,100909.53
2022-11-20T01:16:14.056Z,100900.53
2022-11-20T01:18:41.560Z,100894.44
2022-11-20T01:21:09.301Z,100896.47
2022-11-20T01:23:37.398Z,100897.16
2022-11-20T01:26:05.322Z,100897.16
2022-11-20T01:28:32.086Z,100890.88
2022-11-20T01:30:59.086Z,100896.31
2022-11-20T01:33:26.429Z,100899.03
2022-11-20T01:35:53.158Z,100894.44
2022-11-20T01:38:21.079Z,100891.72
2022-11-20T01:40:54.902Z,100888.81
2022-11-20T01:43:21.507Z,100888.63
2022-11-20T01:45:57.169Z,100880.66
2022-11-20T01:48:25.242Z,100880.84
2022-11-20T01:50:53.566Z,100880.66
2022-11-20T01:53:22.236Z,100876.59
2022-11-20T01:55:51.135Z,100880.00
2022-11-20T01:58:20.776Z,100885.25
2022-11-20T02:00:47.210Z,100886.28
2022-11-20T02:03:17.036Z,100878.13
2022-11-20T02:05:58.816Z,100879.31
2022-11-20T02:08:25.285Z,100872.19
2022-11-20T02:10:51.820Z,100866.94
2022-11-20T02:13:37.021Z,100875.44
2022-11-20T02:16:04.266Z,100866.47
2022-11-20T02:18:30.999Z,100865.13
2022-11-20T02:21:05.599Z,100869.72
2022-11-20T02:23:52.862Z,100869.84
2022-11-20T02:26:21.034Z,100861.84
2022-11-20T02:28:47.583Z,100866.25
2022-11-20T02:31:14.025Z,100870.84
2022-11-20T02:33:40.437Z,100872.03
2022-11-20T02:36:10.351Z,100860.31
2022-11-20T02:38:36.854Z,100859.81
2022-11-20T02:41:03.329Z,100866.28
2022-11-20T02:43:29.829Z,100858.31
2022-11-20T02:45:56.437Z,100862.22
2022-11-20T02:48:25.110Z,100863.25
2022-11-20T02:50:51.813Z,100865.28
2022-11-20T02:53:18.266Z,100862.94
2022-11-20T02:55:44.725Z,100863.06
2022-11-20T02:58:11.446Z,100865.13
2022-11-20T03:00:37.877Z,100868.00
2022-11-20T03:03:04.355Z,100863.59
2022-11-20T03:05:30.821Z,100867.88
2022-11-20T03:07:57.318Z,100867.03
2022-11-20T03:10:23.783Z,100860.56
2022-11-20T03:12:53.854Z,100852.41
2022-11-20T03:15:20.263Z,100848.00
2022-11-20T03:17:46.720Z,100849.00
2022-11-20T03:20:13.313Z,100859.03
2022-11-20T03:22:39.721Z,100851.06
2022-11-20T03:25:06.270Z,100849.19
2022-11-20T03:27:34.369Z,100842.91
2022-11-20T03:30:00.825Z,100851.25
2022-11-20T03:32:27.470Z,100851.41
2022-11-20T03:34:53.839Z,100849.72
2022-11-20T03:37:20.417Z,100835.28
2022-11-20T03:39:46.843Z,100836.13
2022-11-20T03:42:32.070Z,100829.03
2022-11-20T03:44:58.506Z,100829.88
2022-11-20T03:47:24.970Z,100832.75
2022-11-20T03:49:51.396Z,100832.75
2022-11-20T03:52:17.845Z,100828.34
2022-11-20T03:54:44.303Z,100822.06
2022-11-20T03:57:10.725Z,100823.09
2022-11-20T03:59:37.134Z,100824.13
2022-11-20T04:02:03.592Z,100815.13
2022-11-20T04:04:30.158Z,100811.53
2022-11-20T04:06:56.644Z,100810.69
2022-11-20T04:09:23.497Z,100824.28
2022-11-20T04:11:50.101Z,100821.56
2022-11-20T04:14:17.168Z,100827.81
2022-11-20T04:16:43.790Z,100816.97
2022-11-20T04:19:12.445Z,100822.75
2022-11-20T04:21:39.222Z,100818.19
2022-11-20T04:24:05.993Z,100820.06
2022-11-20T04:26:32.446Z,100815.81
2022-11-20T04:29:01.478Z,100824.13
2022-11-20T04:31:29.115Z,100817.66
2022-11-20T04:33:55.546Z,100821.91
2022-11-20T04:36:23.802Z,100818.00
2022-11-20T04:38:57.053Z,100814.44
2022-11-20T04:41:24.668Z,100812.56
2022-11-20T04:43:52.283Z,100810.69
2022-11-20T04:46:20.291Z,100812.56
2022-11-20T04:48:47.128Z,100810.03
2022-11-20T04:51:13.720Z,100808.16
2022-11-20T04:53:40.123Z,100810.19
2022-11-20T04:56:07.922Z,100806.63
2022-11-20T04:58:35.409Z,100820.19
2022-11-20T05:01:10.203Z,100817.66
2022-11-20T05:03:41.968Z,100818.69
2022-11-20T05:06:09.719Z,100817.66
2022-11-20T05:08:36.182Z,100816.81
2022-11-20T05:11:06.740Z,100808.00
2022-11-20T05:13:33.309Z,100807.16
2022-11-20T05:16:03.803Z,100803.59
2022-11-20T05:18:30.294Z,100816.31
2022-11-20T05:20:57.545Z,100802.06
2022-11-20T05:23:24.439Z,100804.63
2022-11-20T05:25:59.421Z,100804.78
2022-11-20T05:28:26.953Z,100801.22
2022-11-20T05:30:53.403Z,100799.53
2022-11-20T05:33:20.076Z,100802.25
2022-11-20T05:35:46.577Z,100797.84
2022-11-20T05:38:13.155Z,100799.72
2022-11-20T05:40:39.635Z,100796.16
2022-11-20T05:43:06.094Z,100788.00
2022-11-20T05:45:32.614Z,100791.56
2022-11-20T05:48:00.192Z,100790.72
2022-11-20T05:50:27.120Z,100785.28
2022-11-20T05:52:53.543Z,100788.00
2022-11-20T05:55:19.965Z,100789.84
2022-11-20T05:57:46.513Z,100790.88
2022-11-20T06:00:16.049Z,100793.44
2022-11-20T06:02:42.584Z,100781.88
2022-11-20T06:05:09.182Z,100782.72
2022-11-20T06:07:35.665Z,100783.56
2022-11-20T06:10:02.197Z,100785.44
2022-11-20T06:12:28.681Z,100783.56
2022-11-20T06:14:55.075Z,100778.31
2022-11-20T06:17:21.481Z,100776.47
2022-11-20T06:19:47.907Z,100771.88
2022-11-20T06:22:14.327Z,100778.47
2022-11-20T06:24:40.761Z,100779.66
2022-11-20T06:27:07.279Z,100781.34
2022-11-20T06:29:34.260Z,100781.19
2022-11-20T06:32:00.857Z,100784.59
2022-11-20T06:34:27.341Z,100788.84
2022-11-20T06:36:53.786Z,100774.44
2022-11-20T06:39:20.688Z,100782.56
2022-11-20T06:41:47.322Z,100781.69
2022-11-20T06:44:13.791Z,100783.56
2022-11-20T06:46:40.214Z,100774.44
2022-11-20T06:49:06.999Z,100781.69
2022-11-20T06:51:33.668Z,100775.28
2022-11-20T06:54:01.913Z,100769.00
2022-11-20T06:56:28.944Z,100779.69
2022-11-20T06:58:55.445Z,100774.25
2022-11-20T07:01:22.150Z,100772.38
2022-11-20T07:03:54.036Z,100772.38
2022-11-20T07:06:20.941Z,100770.50
2022-11-20T07:08:48.031Z,100767.78
2022-11-20T07:11:14.938Z,100780.34
2022-11-20T07:13:41.545Z,100774.06
2022-11-20T07:16:08.774Z,100778.66
2022-11-20T07:18:35.326Z,100774.06
2022-11-20T07:21:02.687Z,100774.25
2022-11-20T07:23:29.133Z,100778.84
2022-11-20T07:25:55.745Z,100770.69
2022-11-20T07:28:22.166Z,100766.09
2022-11-20T07:30:52.515Z,100769.66
2022-11-20T07:33:19.116Z,100768.81
2022-11-20T07:35:46.085Z,100769.47
2022-11-20T07:38:12.583Z,100773.06
2022-11-20T07:40:39.045Z,100773.91
2022-11-20T07:43:05.634Z,100774.75
2022-11-20T07:45:32.050Z,100774.75
2022-11-20T07:47:58.502Z,100772.88
2022-11-20T07:50:25.058Z,100773.06
2022-11-20T07:52:51.634Z,100768.63
2022-11-20T07:55:18.175Z,100757.63
2022-11-20T07:57:44.628Z,100767.63
2022-11-20T08:00:12.028Z,100762.84
2022-11-20T08:02:39.992Z,100762.00
2022-11-20T08:05:06.970Z,100758.28
2022-11-20T08:07:40.419Z,100766.59
2022-11-20T08:10:07.558Z,100761.19
2022-11-20T08:12:52.593Z,100755.91
2022-11-20T08:15:19.150Z,100756.94
2022-11-20T08:18:01.974Z,100755.91
2022-11-20T08:20:32.150Z,100755.25
2022-11-20T08:23:00.595Z,100749.63
2022-11-20T08:25:27.486Z,100749.63
2022-11-20T08:27:57.859Z,100751.34
2022-11-20T08:30:27.043Z,100749.63
2022-11-20T08:32:53.869Z,100749.63
2022-11-20T08:35:20.643Z,100746.75
2022-11-20T08:37:47.726Z,100745.91
2022-11-20T08:40:19.310Z,100746.75
2022-11-20T08:42:49.590Z,100744.03
2022-11-20T08:45:16.202Z,100744.03
2022-11-20T08:47:43.121Z,100743.19
2022-11-20T08:50:13.000Z,100742.31
2022-11-20T08:52:40.028Z,100747.59
2022-11-20T08:55:07.578Z,100739.44
2022-11-20T08:57:34.381Z,100732.16
2022-11-20T09:00:08.546Z,100746.22
2022-11-20T09:02:35.618Z,100738.09
2022-11-20T09:05:03.390Z,100738.94
2022-11-20T09:07:30.964Z,100740.63
2022-11-20T09:10:22.100Z,100738.75
2022-11-20T09:12:44.003Z,100736.03
2022-11-20T09:15:12.788Z,100735.88
2022-11-20T09:17:39.210Z,100738.41
2022-11-20T09:20:06.021Z,100737.38
2022-11-20T09:22:32.488Z,100740.28
2022-11-20T09:24:58.952Z,100733.84
2022-11-20T09:27:25.362Z,100733.19
2022-11-20T09:29:51.857Z,100733.34
2022-11-20T09:32:18.302Z,100741.66
2022-11-20T09:34:44.704Z,100734.19
2022-11-20T09:37:11.244Z,100733.69
2022-11-20T09:39:39.896Z,100730.44
2022-11-20T09:42:15.157Z,100735.50
2022-11-20T09:44:44.702Z,100735.38
2022-11-20T09:47:11.247Z,100724.69
2022-11-20T09:49:51.758Z,100724.72
2022-11-20T09:52:27.823Z,100729.25
2022-11-20T09:54:54.466Z,100723.84
2022-11-20T09:57:24.346Z,100724.34
2022-11-20T09:59:52.200Z,100715.69
2022-11-20T10:02:25.166Z,100718.91
2022-11-20T10:05:00.200Z,100717.53
2022-11-20T10:07:33.437Z,100710.75
2022-11-20T10:10:00.297Z,100721.25
2022-11-20T10:12:47.036Z,100713.63
2022-11-20T10:15:13.428Z,100703.25
2022-11-20T10:18:02.323Z,100703.91
2022-11-20T10:20:34.562Z,100701.69
2022-11-20T10:23:13.307Z,100694.19
2022-11-20T10:25:43.666Z,100694.69
2022-11-20T10:28:29.795Z,100687.22
2022-11-20T10:31:04.877Z,100688.91
2022-11-20T10:33:49.973Z,100691.28
2022-11-20T10:36:29.086Z,100696.50
2022-11-20T10:38:59.605Z,100692.59
2022-11-20T10:41:35.976Z,100694.28
2022-11-20T10:44:13.330Z,100688.66
2022-11-20T10:46:41.675Z,100685.78
2022-11-20T10:49:15.479Z,100689.16
2022-11-20T10:51:51.116Z,100688.31
2022-11-20T10:54:20.966Z,100696.13
2022-11-20T10:56:50.335Z,100686.09
2022-11-20T10:59:35.646Z,100685.91
2022-11-20T11:02:03.472Z,100691.34
2022-11-20T11:04:46.429Z,100686.75
2022-11-20T11:07:22.553Z,100685.56
2022-11-20T11:09:56.019Z,100686.41
2022-11-20T11:12:24.637Z,100685.38
2022-11-20T11:14:52.222Z,100683.53
2022-11-20T11:17:21.670Z,100682.50
2022-11-20T11:19:57.733Z,100687.72
2022-11-20T11:22:24.177Z,100683.13
2022-11-20T11:24:54.072Z,100672.28
2022-11-20T11:27:20.606Z,100682.97
2022-11-20T11:29:47.558Z,100670.22
2022-11-20T11:32:15.632Z,100662.09
2022-11-20T11:34:42.170Z,100661.88
2022-11-20T11:37:18.508Z,100660.00
2022-11-20T11:39:49.406Z,100657.28
2022-11-20T11:42:21.845Z,100651.84
2022-11-20T11:45:07.380Z,100657.28
2022-11-20T11:47:36.862Z,100649.97
2022-11-20T11:50:03.299Z,100653.53
2022-11-20T11:52:30.121Z,100657.97
2022-11-20T11:54:59.098Z,100658.81
2022-11-20T11:57:37.868Z,100647.94
2022-11-20T12:00:07.355Z,100648.00
2022-11-20T12:02:42.782Z,100651.22
2022-11-20T12:05:27.877Z,100651.69
2022-11-20T12:08:14.588Z,100641.66
2022-11-20T12:10:59.394Z,100652.34
2022-11-20T12:13:31.949Z,100640.44
2022-11-20T12:15:59.117Z,100646.72
2022-11-20T12:18:25.690Z,100647.59
2022-11-20T12:21:04.856Z,100647.59
2022-11-20T12:23:31.282Z,100636.72
2022-11-20T12:25:59.662Z,100643.84
2022-11-20T12:28:26.165Z,100645.72
2022-11-20T12:30:52.638Z,100636.53
2022-11-20T12:33:26.882Z,100630.06
2022-11-20T12:36:11.883Z,100631.09
2022-11-20T12:38:47.642Z,100624.81
2022-11-20T12:41:47.467Z,100615.63
2022-11-20T12:44:47.684Z,100622.94
2022-11-20T12:47:14.179Z,100623.78
2022-11-20T12:49:58.256Z,100615.81
2022-11-20T12:52:47.898Z,100619.53
2022-11-20T12:55:22.313Z,100625.66
2022-11-20T12:57:51.971Z,100621.25
2022-11-20T13:00:22.645Z,100628.38
2022-11-20T13:03:09.023Z,100619.38
2022-11-20T13:05:35.491Z,100618.34
2022-11-20T13:08:03.059Z,100625.47
2022-11-20T13:10:55.927Z,100626.31
2022-11-20T13:13:22.366Z,100610.88
2022-11-20T13:15:54.931Z,100613.38
2022-11-20T13:18:21.538Z,100607.97
2022-11-20T13:20:49.196Z,100610.66
2022-11-20T13:23:28.727Z,100608.78
2022-11-20T13:26:05.849Z,100606.06
2022-11-20T13:28:32.953Z,100599.59
2022-11-20T13:30:59.922Z,100606.06
2022-11-20T13:33:35.639Z,100605.03
2022-11-20T13:36:03.863Z,100608.31
2022-11-20T13:38:41.919Z,100609.16
2022-11-20T13:41:28.682Z,100605.03
2022-11-20T13:43:58.146Z,100604.03
2022-11-20T13:46:25.855Z,100602.16
2022-11-20T13:48:54.574Z,100602.16
2022-11-20T13:51:36.449Z,100602.16
2022-11-20T13:54:05.618Z,100597.72
2022-11-20T13:56:32.097Z,100597.72
2022-11-20T13:59:05.199Z,100599.44
2022-11-20T14:01:32.994Z,100592.13
2022-11-20T14:04:06.073Z,100588.72
2022-11-20T14:06:35.617Z,100596.72
2022-11-20T14:09:02.224Z,100594.84
2022-11-20T14:11:32.012Z,100587.53
2022-11-20T14:14:04.059Z,100601.97
2022-11-20T14:16:31.857Z,100594.66
2022-11-20T14:18:59.137Z,100596.34
2022-11-20T14:21:30.393Z,100592.78
2022-11-20T14:24:07.001Z,100594.66
2022-11-20T14:26:34.242Z,100592.78
2022-11-20T14:29:01.104Z,100589.06
2022-11-20T14:31:28.830Z,100590.91
2022-11-20T14:33:55.961Z,100591.94
2022-11-20T14:36:24.526Z,100590.06
2022-11-20T14:38:51.896Z,100593.63
2022-11-20T14:41:22.707Z,100586.34
2022-11-20T14:43:57.722Z,100580.03
2022-11-20T14:46:24.719Z,100580.91
2022-11-20T14:48:52.694Z,100571.88
2022-11-20T14:51:30.674Z,100570.88
2022-11-20T14:53:57.217Z,100569.00
2022-11-20T14:56:25.074Z,100570.03
2022-11-20T14:58:58.465Z,100565.44
2022-11-20T15:01:29.419Z,100571.72
2022-11-20T15:04:10.453Z,100565.78
2022-11-20T15:06:37.764Z,100572.75
2022-11-20T15:09:06.117Z,100571.88
2022-11-20T15:11:34.741Z,100574.44
2022-11-20T15:14:05.782Z,100581.75
2022-11-20T15:16:32.512Z,100575.47
2022-11-20T15:18:59.419Z,100572.75
2022-11-20T15:21:26.305Z,100567.31
2022-11-20T15:23:52.757Z,100568.16
2022-11-20T15:26:27.129Z,100566.28
2022-11-20T15:28:53.735Z,100572.53
2022-11-20T15:31:22.007Z,100566.28
2022-11-20T15:33:48.831Z,100561.69
2022-11-20T15:36:15.724Z,100566.28
2022-11-20T15:38:42.289Z,100557.91
2022-11-20T15:41:08.928Z,100561.47
2022-11-20T15:43:35.445Z,100562.50
2022-11-20T15:46:04.319Z,100560.63
2022-11-20T15:48:32.373Z,100559.59
2022-11-20T15:51:04.994Z,100548.09
2022-11-20T15:53:31.470Z,100541.59
2022-11-20T15:55:58.061Z,100547.88
2022-11-20T15:58:25.282Z,100555.00
2022-11-20T16:00:51.970Z,100557.72
2022-11-20T16:03:18.441Z,100555.19
2022-11-20T16:05:45.161Z,100557.91
2022-11-20T16:08:12.196Z,100560.63
2022-11-20T16:10:39.053Z,100557.28
2022-11-20T16:13:24.894Z,100558.97
2022-11-20T16:15:53.735Z,100558.13
2022-11-20T16:18:21.526Z,100555.56
2022-11-20T16:20:50.033Z,100557.28
2022-11-20T16:23:16.683Z,100556.44
2022-11-20T16:25:43.903Z,100561.69
2022-11-20T16:28:13.562Z,100555.56
2022-11-20T16:30:44.077Z,100559.16
2022-11-20T16:33:11.999Z,100558.13
2022-11-20T16:35:38.518Z,100557.44
2022-11-20T16:38:04.917Z,100566.63
2022-11-20T16:40:31.398Z,100560.16
2022-11-20T16:42:58.148Z,100559.50
2022-11-20T16:45:27.021Z,100567.47
2022-11-20T16:47:56.521Z,100562.88
2022-11-20T16:50:22.949Z,100562.38
2022-11-20T16:52:49.514Z,100565.97
2022-11-20T16:55:16.014Z,100568.31
2022-11-20T16:57:42.742Z,100572.75
2022-11-20T17:00:09.538Z,100561.56
2022-11-20T17:02:37.877Z,100564.94
2022-11-20T17:05:04.597Z,100569.34
2022-11-20T17:07:31.150Z,100565.78
2022-11-20T17:09:58.148Z,100569.34
2022-11-20T17:12:24.653Z,100563.72
2022-11-20T17:14:51.103Z,100571.88
2022-11-20T17:17:17.569Z,100565.78
2022-11-20T17:19:44.051Z,100563.06
2022-11-20T17:22:10.601Z,100568.31
2022-11-20T17:24:36.973Z,100559.31
2022-11-20T17:27:03.436Z,100566.44
2022-11-20T17:29:30.023Z,100558.28
2022-11-20T17:31:56.418Z,100558.28
2022-11-20T17:34:23.200Z,100562.72
2022-11-20T17:36:50.214Z,100557.44
2022-11-20T17:39:17.475Z,100568.31
2022-11-20T17:41:44.380Z,100552.84
2022-11-20T17:44:11.712Z,100558.28
2022-11-20T17:46:38.514Z,100558.13
2022-11-20T17:49:05.114Z,100553.53
2022-11-20T17:51:32.705Z,100558.13
2022-11-20T17:54:01.081Z,100563.56
2022-11-20T17:56:49.705Z,100565.22
2022-11-20T17:59:16.603Z,100564.38
2022-11-20T18:01:43.251Z,100559.78
2022-11-20T18:04:10.630Z,100559.78
2022-11-20T18:06:37.225Z,100562.50
2022-11-20T18:09:04.568Z,100564.06
2022-11-20T18:11:35.440Z,100557.91
2022-11-20T18:14:21.964Z,100549.56
2022-11-20T18:16:50.233Z,100547.88
2022-11-20T18:19:18.849Z,100546.84
2022-11-20T18:21:45.359Z,100540.44
2022-11-20T18:24:11.752Z,100538.69
2022-11-20T18:26:43.904Z,100533.13
2022-11-20T18:29:11.631Z,100538.56
2022-11-20T18:31:38.272Z,100533.13
2022-11-20T18:34:05.421Z,100532.28
2022-11-20T18:36:32.671Z,100531.25
2022-11-20T18:39:00.053Z,100528.53
2022-11-20T18:41:46.019Z,100516.81
2022-11-20T18:44:35.789Z,100525.81
2022-11-20T18:47:04.852Z,100526.66
2022-11-20T18:49:34.350Z,100524.97
2022-11-20T18:52:00.936Z,100538.56
2022-11-20T18:54:27.323Z,100535.84
2022-11-20T18:56:53.821Z,100535.84
2022-11-20T18:59:20.609Z,100538.56
2022-11-20T19:01:47.849Z,100538.56
2022-11-20T19:04:15.062Z,100528.53
2022-11-20T19:06:42.323Z,100523.94
2022-11-20T19:09:09.561Z,100524.78
2022-11-20T19:11:36.814Z,100530.22
2022-11-20T19:14:03.385Z,100531.88
2022-11-20T19:16:30.241Z,100527.50
2022-11-20T19:19:03.056Z,100517.66
2022-11-20T19:21:30.455Z,100525.81
2022-11-20T19:23:58.486Z,100522.06
2022-11-20T19:26:25.459Z,100523.94
2022-11-20T19:28:52.201Z,100528.31
2022-11-20T19:31:24.299Z,100519.84
2022-11-20T19:33:58.579Z,100520.69
2022-11-20T19:36:26.577Z,100517.97
2022-11-20T19:38:53.590Z,100520.56
2022-11-20T19:41:21.432Z,100514.22
2022-11-20T19:43:49.869Z,100517.66
2022-11-20T19:46:21.038Z,100511.69
2022-11-20T19:48:47.661Z,100519.22
2022-11-20T19:51:18.785Z,100516.66
2022-11-20T19:53:45.382Z,100519.84
2022-11-20T19:56:12.098Z,100522.25
2022-11-20T19:58:39.386Z,100518.19
2022-11-20T20:01:16.870Z,100518.69
2022-11-20T20:03:44.852Z,100516.81
2022-11-20T20:06:13.518Z,100512.22
2022-11-20T20:08:40.390Z,100506.78
2022-11-20T20:11:13.940Z,100495.91
2022-11-20T20:13:40.982Z,100500.31
2022-11-20T20:16:08.234Z,100504.69
2022-11-20T20:18:34.674Z,100501.13
2022-11-20T20:21:05.310Z,100501.97
2022-11-20T20:23:32.298Z,100508.28
2022-11-20T20:25:59.777Z,100514.56
2022-11-20T20:28:26.575Z,100510.13
2022-11-20T20:30:53.118Z,100501.13
2022-11-20T20:33:19.522Z,100509.28
2022-11-20T20:35:46.182Z,100503.88
2022-11-20T20:38:12.765Z,100502.84
2022-11-20T20:40:39.293Z,100498.25
2022-11-20T20:43:05.772Z,100495.53
2022-11-20T20:45:32.259Z,100496.38
2022-11-20T20:47:58.769Z,100489.25
2022-11-20T20:50:25.271Z,100487.38
2022-11-20T20:52:51.833Z,100490.94
2022-11-20T20:55:18.414Z,100478.38
2022-11-20T20:57:44.882Z,100488.38
2022-11-20T21:00:11.511Z,100479.22
2022-11-20T21:02:38.046Z,100482.59
2022-11-20T21:05:04.709Z,100481.94
2022-11-20T21:07:31.214Z,100472.75
2022-11-20T21:09:57.793Z,100472.94
2022-11-20T21:12:24.295Z,100463.91
2022-11-20T21:14:50.793Z,100463.91
2022-11-20T21:17:17.303Z,100464.31
2022-11-20T21:19:43.788Z,100458.31
2022-11-20T21:22:10.197Z,100464.59
2022-11-20T21:24:36.733Z,100466.47
2022-11-20T21:27:04.711Z,100461.88
2022-11-20T21:29:31.393Z,100468.16
2022-11-20T21:31:58.181Z,100461.69
2022-11-20T21:34:25.619Z,100449.97
2022-11-20T21:36:52.433Z,100449.13
2022-11-20T21:39:21.781Z,100433.66
2022-11-20T21:41:48.261Z,100434.88
2022-11-20T21:44:31.657Z,100438.44
2022-11-20T21:46:58.653Z,100423.81
2022-11-20T21:49:25.430Z,100426.25
2022-11-20T21:51:53.681Z,100426.38
2022-11-20T21:54:20.204Z,100421.25
2022-11-20T21:56:46.685Z,100421.13
2022-11-20T21:59:14.026Z,100423.59
2022-11-20T22:01:41.604Z,100417.97
2022-11-20T22:04:13.117Z,100417.97
2022-11-20T22:06:39.641Z,100423.41
2022-11-20T22:09:06.123Z,100422.00
2022-11-20T22:11:32.662Z,100421.63
2022-11-20T22:14:17.721Z,100421.91
2022-11-20T22:16:44.186Z,100417.50
2022-11-20T22:19:10.713Z,100407.75
2022-11-20T22:21:38.668Z,100410.47
2022-11-20T22:24:05.170Z,100401.78
2022-11-20T22:26:34.935Z,100402.75
2022-11-20T22:29:04.010Z,100401.38
2022-11-20T22:31:31.044Z,100400.56
2022-11-20T22:33:58.328Z,100400.06
2022-11-20T22:36:25.958Z,100406.53
2022-11-20T22:38:52.371Z,100405.34
2022-11-20T22:41:20.133Z,100399.59
2022-11-20T22:43:47.004Z,100399.91
2022-11-20T22:46:20.101Z,100396.63
2022-11-20T22:48:50.667Z,100396.16
2022-11-20T22:51:17.497Z,100396.63
2022-11-20T22:53:46.440Z,100401.03
2022-11-20T22:56:13.556Z,100395.00
2022-11-20T22:58:41.102Z,100401.78
2022-11-20T23:01:08.846Z,100393.78
2022-11-20T23:03:35.580Z,100397.00
2022-11-20T23:06:02.439Z,100391.75
2022-11-20T23:08:29.276Z,100401.09
2022-11-20T23:11:02.498Z,100390.63
2022-11-20T23:13:29.429Z,100387.44
2022-11-20T23:16:00.433Z,100388.00
2022-11-20T23:18:26.938Z,100383.75
2022-11-20T23:20:53.487Z,100383.09
2022-11-20T23:23:19.986Z,100380.94
2022-11-20T23:25:46.386Z,100388.44
2022-11-20T23:28:12.873Z,100384.22
2022-11-20T23:30:39.405Z,100384.63
2022-11-20T23:33:05.826Z,100378.50
2022-11-20T23:35:32.298Z,100379.72
2022-11-20T23:37:58.867Z,100376.34
2022-11-20T23:40:25.289Z,100375.69
2022-11-20T23:43:10.374Z,100366.22
2022-11-20T23:45:38.005Z,100364.75
2022-11-20T23:48:04.774Z,100358.63
2022-11-20T23:50:31.190Z,100356.13
2022-11-20T23:52:57.756Z,100357.31
2022-11-20T23:55:24.301Z,100344.97
2022-11-20T23:57:51.093Z,100345.13
